createdAt,value
2018-10-09T00:00:31.451Z,88.70
2018-10-09T00:03:01.379Z,81.70
2018-10-09T00:05:31.138Z,87.80
2018-10-09T00:08:00.942Z,86.30
2018-10-09T00:10:32.491Z,86.60
2018-10-09T00:13:02.354Z,90.00
2018-10-09T00:15:31.582Z,91.00
2018-10-09T00:18:02.824Z,92.60
2018-10-09T00:20:33.463Z,92.60
2018-10-09T00:23:02.979Z,92.40
2018-10-09T00:25:32.183Z,92.50
2018-10-09T00:28:02.673Z,91.50
2018-10-09T00:30:31.922Z,91.90
2018-10-09T00:33:01.720Z,90.80
2018-10-09T00:35:30.914Z,90.70
2018-10-09T00:38:00.485Z,87.10
2018-10-09T00:40:30.840Z,83.90
2018-10-09T00:43:01.766Z,82.40
2018-10-09T00:45:31.128Z,83.30
2018-10-09T00:48:02.289Z,88.50
2018-10-09T00:50:31.747Z,92.40
2018-10-09T00:53:01.282Z,89.40
2018-10-09T00:55:30.465Z,90.00
2018-10-09T00:57:59.965Z,86.90
2018-10-09T01:00:29.373Z,87.40
2018-10-09T01:02:58.595Z,86.70
2018-10-09T01:05:27.901Z,86.70
2018-10-09T01:07:57.095Z,85.50
2018-10-09T01:10:26.442Z,85.80
2018-10-09T01:12:55.644Z,83.40
2018-10-09T01:15:24.852Z,83.10
2018-10-09T01:17:54.067Z,83.50
2018-10-09T01:20:31.914Z,84.00
2018-10-09T01:23:02.902Z,82.70
2018-10-09T01:25:32.164Z,80.70
2018-10-09T01:28:01.789Z,80.40
2018-10-09T01:30:33.080Z,79.70
2018-10-09T01:33:03.947Z,81.00
2018-10-09T01:35:33.136Z,80.10
2018-10-09T01:38:03.098Z,77.60
2018-10-09T01:40:32.441Z,76.30
2018-10-09T01:43:01.977Z,77.60
2018-10-09T01:45:32.094Z,74.40
2018-10-09T01:48:01.317Z,74.10
2018-10-09T01:50:31.840Z,76.80
2018-10-09T01:53:01.038Z,78.20
2018-10-09T01:55:30.227Z,81.90
2018-10-09T01:57:59.408Z,79.00
2018-10-09T02:00:29.726Z,79.00
2018-10-09T02:03:00.367Z,76.90
2018-10-09T02:05:29.594Z,75.60
2018-10-09T02:07:58.847Z,73.40
2018-10-09T02:10:28.133Z,73.70
2018-10-09T02:12:57.343Z,73.80
2018-10-09T02:15:26.534Z,74.30
2018-10-09T02:17:55.757Z,83.00
2018-10-09T02:20:25.112Z,74.50
2018-10-09T02:22:55.301Z,76.20
2018-10-09T02:25:24.528Z,78.70
2018-10-09T02:27:53.935Z,80.30
2018-10-09T02:30:23.390Z,80.50
2018-10-09T02:32:52.578Z,79.80
2018-10-09T02:35:21.880Z,82.90
2018-10-09T02:37:51.127Z,82.40
2018-10-09T02:40:22.414Z,83.30
2018-10-09T02:42:51.682Z,83.60
2018-10-09T02:45:20.908Z,82.10
2018-10-09T02:47:50.120Z,82.20
2018-10-09T02:50:19.397Z,82.30
2018-10-09T02:52:48.776Z,80.20
2018-10-09T02:55:18.005Z,84.30
2018-10-09T02:57:47.193Z,76.80
2018-10-09T03:00:16.604Z,75.90
2018-10-09T03:02:45.774Z,79.70
2018-10-09T03:05:14.973Z,78.50
2018-10-09T03:07:44.196Z,78.20
2018-10-09T03:10:15.441Z,77.70
2018-10-09T03:12:44.656Z,79.40
2018-10-09T03:15:13.875Z,79.80
2018-10-09T03:17:43.061Z,81.00
2018-10-09T03:20:13.115Z,82.00
2018-10-09T03:22:46.281Z,82.80
2018-10-09T03:25:15.492Z,85.00
2018-10-09T03:27:44.859Z,82.40
2018-10-09T03:30:14.143Z,83.50
2018-10-09T03:32:43.397Z,82.20
2018-10-09T03:35:12.826Z,85.30
2018-10-09T03:37:42.390Z,86.00
2018-10-09T03:40:12.686Z,87.40
2018-10-09T03:42:42.228Z,86.80
2018-10-09T03:45:12.245Z,80.40
2018-10-09T03:47:41.533Z,81.50
2018-10-09T03:50:10.978Z,81.80
2018-10-09T03:52:40.234Z,82.30
2018-10-09T03:55:10.121Z,82.40
2018-10-09T03:57:39.798Z,83.00
2018-10-09T04:00:11.581Z,82.80
2018-10-09T04:02:40.849Z,85.20
2018-10-09T04:05:10.583Z,86.20
2018-10-09T04:07:39.839Z,86.40
2018-10-09T04:10:11.157Z,87.50
2018-10-09T04:12:40.614Z,85.70
2018-10-09T04:15:11.110Z,83.50
2018-10-09T04:17:40.393Z,86.60
2018-10-09T04:20:10.483Z,85.20
2018-10-09T04:22:40.556Z,89.50
2018-10-09T04:25:11.088Z,90.40
2018-10-09T04:27:41.128Z,91.00
2018-10-09T04:30:11.279Z,90.30
2018-10-09T04:32:40.518Z,91.30
2018-10-09T04:35:11.974Z,90.00
2018-10-09T04:37:41.786Z,91.20
2018-10-09T04:40:12.858Z,90.00
2018-10-09T04:42:42.095Z,91.70
2018-10-09T04:45:13.421Z,90.90
2018-10-09T04:47:42.685Z,91.40
2018-10-09T04:50:13.051Z,92.60
2018-10-09T04:52:42.527Z,92.10
2018-10-09T04:55:14.262Z,91.50
2018-10-09T04:57:43.496Z,92.10
2018-10-09T05:00:13.183Z,91.50
2018-10-09T05:02:42.580Z,92.20
2018-10-09T05:05:12.743Z,91.50
2018-10-09T05:07:41.968Z,91.10
2018-10-09T05:10:12.079Z,90.00
2018-10-09T05:12:41.299Z,87.30
2018-10-09T05:15:11.196Z,85.30
2018-10-09T05:17:40.462Z,84.70
2018-10-09T05:20:10.654Z,82.50
2018-10-09T05:22:40.174Z,82.40
2018-10-09T05:25:09.988Z,80.70
2018-10-09T05:27:39.908Z,77.70
2018-10-09T05:30:09.408Z,78.90
2018-10-09T05:32:38.699Z,77.20
2018-10-09T05:35:07.998Z,79.00
2018-10-09T05:37:37.374Z,79.00
2018-10-09T05:40:06.816Z,81.30
2018-10-09T05:42:36.300Z,81.10
2018-10-09T05:45:05.998Z,79.80
2018-10-09T05:47:35.328Z,79.90
2018-10-09T05:50:05.511Z,79.30
2018-10-09T05:52:35.159Z,77.50
2018-10-09T05:55:04.543Z,74.80
2018-10-09T05:57:33.857Z,74.50
2018-10-09T06:00:04.422Z,76.90
2018-10-09T06:02:33.730Z,76.10
2018-10-09T06:05:03.055Z,76.20
2018-10-09T06:07:32.372Z,77.60
2018-10-09T06:10:01.879Z,76.50
2018-10-09T06:12:31.201Z,77.90
2018-10-09T06:15:00.604Z,77.10
2018-10-09T06:17:29.822Z,74.40
2018-10-09T06:19:59.289Z,73.80
2018-10-09T06:22:28.593Z,74.60
2018-10-09T06:24:57.876Z,74.30
2018-10-09T06:27:27.519Z,72.20
2018-10-09T06:29:56.803Z,71.60
2018-10-09T06:32:26.377Z,70.40
2018-10-09T06:34:55.678Z,71.10
2018-10-09T06:37:24.975Z,70.80
2018-10-09T06:39:54.473Z,69.40
2018-10-09T06:42:23.919Z,69.10
2018-10-09T06:44:53.236Z,68.90
2018-10-09T06:47:23.896Z,68.50
2018-10-09T06:49:53.922Z,68.40
2018-10-09T06:52:23.283Z,67.80
2018-10-09T06:54:52.674Z,65.10
2018-10-09T06:57:22.255Z,64.60
2018-10-09T06:59:51.728Z,66.40
2018-10-09T07:02:23.451Z,66.30
2018-10-09T07:04:52.796Z,66.50
2018-10-09T07:07:22.074Z,64.70
2018-10-09T07:09:51.719Z,65.20
2018-10-09T07:12:21.010Z,65.80
2018-10-09T07:14:50.390Z,65.90
2018-10-09T07:17:22.427Z,64.80
2018-10-09T07:19:52.103Z,67.10
2018-10-09T07:22:21.439Z,68.20
2018-10-09T07:24:50.716Z,69.10
2018-10-09T07:27:20.021Z,68.90
2018-10-09T07:29:49.435Z,69.00
2018-10-09T07:32:22.700Z,69.70
2018-10-09T07:34:52.016Z,69.20
2018-10-09T07:37:21.417Z,69.00
2018-10-09T07:39:50.820Z,69.90
2018-10-09T07:42:20.185Z,68.40
2018-10-09T07:44:49.604Z,67.60
2018-10-09T07:47:24.671Z,67.70
2018-10-09T07:49:54.153Z,69.70
2018-10-09T07:52:23.592Z,71.60
2018-10-09T07:54:52.884Z,73.40
2018-10-09T07:57:22.251Z,73.30
2018-10-09T07:59:51.784Z,71.30
2018-10-09T08:02:24.234Z,68.80
2018-10-09T08:04:53.824Z,69.60
2018-10-09T08:07:24.457Z,65.90
2018-10-09T08:09:54.302Z,65.00
2018-10-09T08:12:23.942Z,65.60
2018-10-09T08:14:53.352Z,63.40
2018-10-09T08:17:25.322Z,62.90
2018-10-09T08:19:54.869Z,63.40
2018-10-09T08:22:25.130Z,63.20
2018-10-09T08:24:54.525Z,62.80
2018-10-09T08:27:23.840Z,60.70
2018-10-09T08:29:55.382Z,59.60
2018-10-09T08:32:27.212Z,60.40
2018-10-09T08:34:57.539Z,58.70
2018-10-09T08:37:27.009Z,58.50
2018-10-09T08:39:56.585Z,58.60
2018-10-09T08:42:25.937Z,58.30
2018-10-09T08:44:55.296Z,56.60
2018-10-09T08:47:27.444Z,55.90
2018-10-09T08:49:57.032Z,54.70
2018-10-09T08:52:26.362Z,54.20
2018-10-09T08:54:55.620Z,55.00
2018-10-09T08:57:24.972Z,52.40
2018-10-09T08:59:54.429Z,53.10
2018-10-09T09:02:25.700Z,53.40
2018-10-09T09:04:55.092Z,53.60
2018-10-09T09:07:25.468Z,52.40
2018-10-09T09:09:55.169Z,54.20
2018-10-09T09:12:24.967Z,52.90
2018-10-09T09:14:54.357Z,53.60
2018-10-09T09:17:25.844Z,52.00
2018-10-09T09:19:55.181Z,51.20
2018-10-09T09:22:24.905Z,51.10
2018-10-09T09:24:55.656Z,50.30
2018-10-09T09:27:25.994Z,50.40
2018-10-09T09:29:56.735Z,50.20
2018-10-09T09:32:27.723Z,47.90
2018-10-09T09:34:57.312Z,46.20
2018-10-09T09:37:27.765Z,45.30
2018-10-09T09:39:57.129Z,45.80
2018-10-09T09:43:55.456Z,44.30
2018-10-09T09:46:26.567Z,42.10
2018-10-09T09:48:56.016Z,41.70
2018-10-09T09:51:25.597Z,39.50
2018-10-09T09:53:54.897Z,39.40
2018-10-09T09:56:26.470Z,40.40
2018-10-09T09:58:56.149Z,40.80
2018-10-09T10:01:33.568Z,40.90
2018-10-09T10:04:02.923Z,42.60
2018-10-09T10:06:32.327Z,44.60
2018-10-09T10:09:01.685Z,44.40
2018-10-09T10:11:30.953Z,43.80
2018-10-09T10:14:00.189Z,38.60
2018-10-09T10:16:29.483Z,39.40
2018-10-09T10:18:58.872Z,39.40
2018-10-09T10:21:29.137Z,41.30
2018-10-09T10:23:58.419Z,41.60
2018-10-09T10:26:27.848Z,37.20
2018-10-09T10:28:57.504Z,38.40
2018-10-09T10:31:27.005Z,36.90
2018-10-09T10:33:56.337Z,38.00
2018-10-09T10:36:25.808Z,38.30
2018-10-09T10:38:55.667Z,37.40
2018-10-09T10:41:25.186Z,38.50
2018-10-09T10:43:54.576Z,37.10
2018-10-09T10:46:28.230Z,37.60
2018-10-09T10:49:02.027Z,37.90
2018-10-09T10:51:32.943Z,38.10
2018-10-09T10:54:02.452Z,36.40
2018-10-09T10:56:31.965Z,35.00
2018-10-09T10:59:01.804Z,33.90
2018-10-09T11:01:31.309Z,35.30
2018-10-09T11:04:00.591Z,35.10
2018-10-09T11:06:30.108Z,36.00
2018-10-09T11:08:59.643Z,34.50
2018-10-09T11:11:29.173Z,36.10
2018-10-09T11:13:59.915Z,35.10
2018-10-09T11:16:30.249Z,34.00
2018-10-09T11:19:00.806Z,34.60
2018-10-09T11:21:31.272Z,33.80
2018-10-09T11:24:00.955Z,34.20
2018-10-09T11:26:30.435Z,34.40
2018-10-09T11:29:00.810Z,34.60
2018-10-09T11:31:30.390Z,32.80
2018-10-09T11:34:00.530Z,31.70
2018-10-09T11:36:30.311Z,33.60
2018-10-09T11:39:00.764Z,32.10
2018-10-09T11:41:30.398Z,31.90
2018-10-09T11:43:59.793Z,32.00
2018-10-09T11:46:29.237Z,30.60
2018-10-09T11:49:00.132Z,31.50
2018-10-09T11:51:30.369Z,31.10
2018-10-09T11:53:59.724Z,31.60
2018-10-09T11:56:29.121Z,31.90
2018-10-09T11:58:58.714Z,32.10
2018-10-09T12:01:28.075Z,30.30
2018-10-09T12:03:57.482Z,31.10
2018-10-09T12:06:27.043Z,29.40
2018-10-09T12:08:57.192Z,30.60
2018-10-09T12:11:26.844Z,30.70
2018-10-09T12:13:56.156Z,30.60
2018-10-09T12:16:25.394Z,31.10
2018-10-09T12:18:57.652Z,31.00
2018-10-09T12:21:27.067Z,30.50
2018-10-09T12:23:57.497Z,31.60
2018-10-09T12:26:26.853Z,32.00
2018-10-09T12:28:56.497Z,31.00
2018-10-09T12:31:26.247Z,31.20
2018-10-09T12:33:56.567Z,31.50
2018-10-09T12:36:26.394Z,30.40
2018-10-09T12:38:55.782Z,31.40
2018-10-09T12:41:25.126Z,31.20
2018-10-09T12:43:54.466Z,31.30
2018-10-09T12:46:25.330Z,30.80
2018-10-09T12:48:57.075Z,30.00
2018-10-09T12:51:27.210Z,29.80
2018-10-09T12:53:56.437Z,30.00
2018-10-09T12:56:31.481Z,29.10
2018-10-09T12:59:04.069Z,28.20
2018-10-09T13:01:34.346Z,28.30
2018-10-09T13:04:03.583Z,28.40
2018-10-09T13:06:32.970Z,28.00
2018-10-09T13:09:02.365Z,28.70
2018-10-09T13:11:32.802Z,28.40
2018-10-09T13:14:03.238Z,28.40
2018-10-09T13:16:32.488Z,28.00
2018-10-09T13:19:02.049Z,27.70
2018-10-09T13:21:32.283Z,27.70
2018-10-09T13:24:01.775Z,27.60
2018-10-09T13:26:31.076Z,28.20
2018-10-09T13:29:01.185Z,27.80
2018-10-09T13:31:30.733Z,26.80
2018-10-09T13:34:00.220Z,25.80
2018-10-09T13:36:29.493Z,26.40
2018-10-09T13:38:58.900Z,26.30
2018-10-09T13:41:28.208Z,25.10
2018-10-09T13:43:57.635Z,23.70
2018-10-09T13:46:27.234Z,22.90
2018-10-09T13:48:56.623Z,21.80
2018-10-09T13:51:26.378Z,22.30
2018-10-09T13:53:55.855Z,22.70
2018-10-09T13:56:25.176Z,22.40
2018-10-09T13:58:54.623Z,23.30
2018-10-09T14:01:23.946Z,24.40
2018-10-09T14:03:53.459Z,23.80
2018-10-09T14:06:22.991Z,24.40
2018-10-09T14:08:52.750Z,23.30
2018-10-09T14:11:22.046Z,22.00
2018-10-09T14:13:51.434Z,21.90
2018-10-09T14:16:20.977Z,18.80
2018-10-09T14:18:50.241Z,18.60
2018-10-09T14:21:19.457Z,18.30
2018-10-09T14:23:48.848Z,16.70
2018-10-09T14:26:18.359Z,15.30
2018-10-09T14:28:47.765Z,14.90
2018-10-09T14:31:16.986Z,13.40
2018-10-09T14:33:46.374Z,14.60
2018-10-09T14:36:16.208Z,14.50
2018-10-09T14:38:45.482Z,15.40
2018-10-09T14:41:14.710Z,14.40
2018-10-09T14:43:44.029Z,14.40
2018-10-09T14:46:13.230Z,14.60
2018-10-09T14:48:42.481Z,15.30
2018-10-09T14:51:11.978Z,15.80
2018-10-09T14:53:41.380Z,16.60
2018-10-09T14:56:10.711Z,16.50
2018-10-09T14:58:39.943Z,16.90
2018-10-09T15:01:09.703Z,17.20
2018-10-09T15:03:39.155Z,16.80
2018-10-09T15:06:08.904Z,16.40
2018-10-09T15:08:38.319Z,17.80
2018-10-09T15:11:07.827Z,18.60
2018-10-09T15:13:37.108Z,18.40
2018-10-09T15:16:06.520Z,19.10
2018-10-09T15:18:35.844Z,18.90
2018-10-09T15:21:05.184Z,19.50
2018-10-09T15:23:34.439Z,19.10
2018-10-09T15:26:03.973Z,19.50
2018-10-09T15:28:33.377Z,19.80
2018-10-09T15:31:02.630Z,20.00
2018-10-09T15:33:31.888Z,20.10
2018-10-09T15:36:01.878Z,20.50
2018-10-09T15:38:31.114Z,21.40
2018-10-09T15:41:00.404Z,23.00
2018-10-09T15:43:29.718Z,24.40
2018-10-09T15:45:59.011Z,25.40
2018-10-09T15:48:28.237Z,26.30
2018-10-09T15:50:58.075Z,27.60
2018-10-09T15:53:27.830Z,28.10
2018-10-09T15:55:57.174Z,28.70
2018-10-09T15:58:28.959Z,29.40
2018-10-09T16:00:58.219Z,30.20
2018-10-09T16:03:27.689Z,30.30
2018-10-09T16:05:57.828Z,31.70
2018-10-09T16:08:36.922Z,32.60
2018-10-09T16:11:06.321Z,35.00
2018-10-09T16:13:36.334Z,38.00
2018-10-09T16:16:06.492Z,41.10
2018-10-09T16:18:35.706Z,42.50
2018-10-09T16:21:04.933Z,43.70
2018-10-09T16:23:34.099Z,45.20
2018-10-09T16:26:03.541Z,47.70
2018-10-09T16:28:32.798Z,48.80
2018-10-09T16:31:02.051Z,50.20
2018-10-09T16:33:31.329Z,51.00
2018-10-09T16:36:00.502Z,48.80
2018-10-09T16:38:29.799Z,49.30
2018-10-09T16:41:01.189Z,49.90
2018-10-09T16:43:30.881Z,50.90
2018-10-09T16:46:00.202Z,51.90
2018-10-09T16:48:30.691Z,52.10
2018-10-09T16:51:04.561Z,53.30
2018-10-09T16:53:35.023Z,53.30
2018-10-09T16:56:04.742Z,54.50
2018-10-09T16:58:33.988Z,55.30
2018-10-09T17:01:03.592Z,56.50
2018-10-09T17:03:33.090Z,55.50
2018-10-09T17:06:02.531Z,56.60
2018-10-09T17:08:31.823Z,57.20
2018-10-09T17:11:01.075Z,57.20
2018-10-09T17:13:30.296Z,58.40
2018-10-09T17:15:59.531Z,58.10
2018-10-09T17:18:30.641Z,58.60
2018-10-09T17:20:59.836Z,57.90
2018-10-09T17:23:29.143Z,59.40
2018-10-09T17:25:58.368Z,59.90
2018-10-09T17:28:27.632Z,61.40
2018-10-09T17:30:57.106Z,62.50
2018-10-09T17:33:26.318Z,64.20
2018-10-09T17:35:56.585Z,63.80
2018-10-09T17:38:25.781Z,62.80
2018-10-09T17:40:56.023Z,59.80
2018-10-09T17:43:25.317Z,58.80
2018-10-09T17:45:56.611Z,61.80
2018-10-09T17:48:26.065Z,63.80
2018-10-09T17:50:55.416Z,65.60
2018-10-09T17:53:24.760Z,66.10
2018-10-09T17:55:54.088Z,69.90
2018-10-09T17:58:23.463Z,71.30
2018-10-09T18:00:52.769Z,71.10
2018-10-09T18:03:22.252Z,69.20
2018-10-09T18:05:51.556Z,68.70
2018-10-09T18:08:20.918Z,64.20
2018-10-09T18:10:50.348Z,65.00
2018-10-09T18:13:19.796Z,66.90
2018-10-09T18:15:49.102Z,70.40
2018-10-09T18:18:18.508Z,70.50
2018-10-09T18:20:47.900Z,70.60
2018-10-09T18:23:17.207Z,69.40
2018-10-09T18:25:47.254Z,72.50
2018-10-09T18:28:17.767Z,74.20
2018-10-09T18:30:48.204Z,77.00
2018-10-09T18:33:17.826Z,78.50
2018-10-09T18:35:47.293Z,80.40
2018-10-09T18:38:17.615Z,82.10
2018-10-09T18:40:47.417Z,78.90
2018-10-09T18:43:16.719Z,78.60
2018-10-09T18:45:46.125Z,78.30
2018-10-09T18:48:16.600Z,77.30
2018-10-09T18:50:46.109Z,77.60
2018-10-09T18:53:17.013Z,80.90
2018-10-09T18:55:46.355Z,82.80
2018-10-09T18:58:15.672Z,84.80
2018-10-09T19:00:45.130Z,86.90
2018-10-09T19:03:15.326Z,87.50
2018-10-09T19:05:44.776Z,88.90
2018-10-09T19:08:14.214Z,88.00
2018-10-09T19:10:43.884Z,86.20
2018-10-09T19:13:13.393Z,86.10
2018-10-09T19:15:42.782Z,83.00
2018-10-09T19:18:12.236Z,86.10
2018-10-09T19:20:46.305Z,88.60
2018-10-09T19:23:15.745Z,87.50
2018-10-09T19:25:45.033Z,87.00
2018-10-09T19:28:14.501Z,89.60
2018-10-09T19:30:45.249Z,88.60
2018-10-09T19:33:14.938Z,90.30
2018-10-09T19:35:45.245Z,90.60
2018-10-09T19:38:14.616Z,90.80
2018-10-09T19:40:46.087Z,90.80
2018-10-09T19:43:15.288Z,89.20
2018-10-09T19:45:44.718Z,90.20
2018-10-09T19:48:15.095Z,88.20
2018-10-09T19:50:44.776Z,85.90
2018-10-09T19:53:14.099Z,88.40
2018-10-09T19:55:43.708Z,86.30
2018-10-09T19:58:14.791Z,87.00
2018-10-09T20:00:44.225Z,90.80
2018-10-09T20:03:13.625Z,88.40
2018-10-09T20:05:42.872Z,89.80
2018-10-09T20:08:13.655Z,91.40
2018-10-09T20:10:43.026Z,89.90
2018-10-09T20:13:12.647Z,91.40
2018-10-09T20:15:42.234Z,91.40
2018-10-09T20:18:11.454Z,91.50
2018-10-09T20:20:40.848Z,91.60
2018-10-09T20:23:10.749Z,91.00
2018-10-09T20:25:40.844Z,91.80
2018-10-09T20:28:10.244Z,91.00
2018-10-09T20:30:40.277Z,90.40
2018-10-09T20:33:12.892Z,89.20
2018-10-09T20:35:44.552Z,90.10
2018-10-09T20:38:14.832Z,83.40
2018-10-09T20:40:45.737Z,84.50
2018-10-09T20:43:15.106Z,89.20
2018-10-09T20:45:45.564Z,90.20
2018-10-09T20:48:14.865Z,91.30
2018-10-09T20:50:44.181Z,91.70
2018-10-09T20:53:13.578Z,92.40
2018-10-09T20:55:43.202Z,92.20
2018-10-09T20:58:15.610Z,92.20
2018-10-09T21:00:45.285Z,92.20
2018-10-09T21:03:15.800Z,90.40
2018-10-09T21:05:45.036Z,90.10
2018-10-09T21:08:17.078Z,90.90
2018-10-09T21:10:48.535Z,90.30
2018-10-09T21:13:18.352Z,90.40
2018-10-09T21:15:48.144Z,90.80
2018-10-09T21:18:18.096Z,91.60
2018-10-09T21:20:47.400Z,87.00
2018-10-09T21:23:17.547Z,86.90
2018-10-09T21:25:46.791Z,86.10
2018-10-09T21:28:16.227Z,90.10
2018-10-09T21:30:47.108Z,92.00
2018-10-09T21:33:16.394Z,92.80
2018-10-09T21:35:45.759Z,93.00
2018-10-09T21:38:18.729Z,93.20
2018-10-09T21:40:48.426Z,93.20
2018-10-09T21:43:17.887Z,91.50
2018-10-09T21:45:47.274Z,92.10
2018-10-09T21:48:16.525Z,91.50
2018-10-09T21:50:46.007Z,91.30
2018-10-09T21:53:15.227Z,91.90
2018-10-09T21:55:44.477Z,92.20
2018-10-09T21:58:13.732Z,91.50
2018-10-09T22:00:50.307Z,91.20
2018-10-09T22:03:20.525Z,91.40
2018-10-09T22:05:50.690Z,91.30
2018-10-09T22:08:19.998Z,90.90
2018-10-09T22:10:49.354Z,91.00
2018-10-09T22:13:18.797Z,90.80
2018-10-09T22:15:48.401Z,89.50
2018-10-09T22:18:17.884Z,87.20
2018-10-09T22:20:47.195Z,88.30
2018-10-09T22:23:16.365Z,90.60
2018-10-09T22:25:45.807Z,90.10
2018-10-09T22:28:28.471Z,89.80
2018-10-09T22:30:58.164Z,91.50
2018-10-09T22:33:27.535Z,92.30
2018-10-09T22:35:58.141Z,91.50
2018-10-09T22:38:30.067Z,88.70
2018-10-09T22:41:05.306Z,90.20
2018-10-09T22:43:36.032Z,91.10
2018-10-09T22:46:05.248Z,90.80
2018-10-09T22:48:35.161Z,90.80
2018-10-09T22:51:04.393Z,90.70
2018-10-09T22:53:35.241Z,90.30
2018-10-09T22:56:04.470Z,86.40
2018-10-09T22:58:34.911Z,81.90
2018-10-09T23:01:04.092Z,81.10
2018-10-09T23:03:36.654Z,82.90
2018-10-09T23:06:06.220Z,84.90
2018-10-09T23:08:36.026Z,85.50
2018-10-09T23:11:05.264Z,86.40
2018-10-09T23:13:35.367Z,88.50
2018-10-09T23:16:04.732Z,90.00
2018-10-09T23:18:33.922Z,90.60
2018-10-09T23:21:03.202Z,94.10
2018-10-09T23:23:32.515Z,95.90
2018-10-09T23:26:01.737Z,91.60
2018-10-09T23:28:30.985Z,94.90
2018-10-09T23:31:00.792Z,95.20
2018-10-09T23:33:30.035Z,96.50
2018-10-09T23:35:59.718Z,96.00
2018-10-09T23:38:29.515Z,96.40
2018-10-09T23:40:58.918Z,97.30
2018-10-09T23:43:28.167Z,97.90
2018-10-09T23:45:57.418Z,97.60
2018-10-09T23:48:26.788Z,97.40
2018-10-09T23:50:56.068Z,97.60
2018-10-09T23:53:25.235Z,97.40
2018-10-09T23:55:54.467Z,97.90
2018-10-09T23:58:23.811Z,97.20
